Headquarters, Valles Caldera, New Mexico Weather observations

Data are for 10 minute period ending at time listed.
 Day   Time   Solar   Ave.   Ave.  Ave.  Vector  Max.   Baro.   Total    
  of    of     Rad.   Air    Rel.  Wind   Wind   Wind  Press.  Precip.   
Year   Day            Temp.  Hum.  Speed  Dir.   Gust                    
2014   (MST)  Kw/m2    F      %     mph   deg.    mph    mb.     in.     
-------------------------------------------------------------------------
 331   13:20   0.47   59.5    14   10.5   299    16.1   746.6    0.00 
 331   13:30   0.46   59.5    14   10.0   298    14.9   746.5    0.00 
 331   13:40   0.44   59.1    14   10.3   298    15.5   746.4    0.00 
 331   13:50   0.43   59.0    14   10.7   299    14.9   746.4    0.00 
 331   14:00   0.41   59.1    14   10.0   299    14.9   746.3    0.00 
 331   14:10   0.39   59.1    14   10.0   298    14.3   746.3    0.00 
 331   14:20   0.37   59.1    13    9.0   298    14.9   746.4    0.00 
 331   14:30   0.35   58.5    13   10.0   299    15.5   746.4    0.00 
 331   14:40   0.33   57.8    13   10.2   299    14.9   746.4    0.00 
 331   14:50   0.31   57.7    13    7.8   295    14.9   746.4    0.00 
 331   15:00   0.28   57.7    14    8.6   296    13.1   746.4    0.00 
 331   15:10   0.26   56.3    16    9.4   298    14.3   746.4    0.00 
 331   15:20   0.23   55.4    17    9.2   298    13.1   746.4    0.00 
 331   15:30   0.21   54.8    19    8.6   297    12.5   746.4    0.00 
 331   15:40   0.18   53.7    20    8.6   296    11.3   746.4    0.00 
 331   15:50   0.16   52.9    21    7.5   295    10.8   746.4    0.00 
 331   16:00   0.14   52.6    22    5.8   293    10.2   746.5    0.00 
 331   16:10   0.03   49.1    25    5.3   291     9.0   746.5    0.00 
 331   16:20   0.02   45.6    28    5.3   291     7.8   746.5    0.00 
 331   16:30   0.01   44.5    29    5.1   291     7.2   746.5    0.00 
 331   16:40   0.01   43.3    31    5.2   291     7.8   746.4    0.00 
 331   16:50   0.01   42.8    32    5.7   291     7.8   746.4    0.00 
 331   17:00   0.00   41.1    36    5.6   290     7.8   746.3    0.00 
 331   17:10   0.00   39.4    39    5.9   290     7.8   746.3    0.00 
 331   17:20   0.00   38.1    43    5.8   290     7.2   746.3    0.00 
 331   17:30   0.00   36.7    46    6.3   290     7.8   746.2    0.00 
 331   17:40   0.00   35.2    47    6.3   291     7.2   746.2    0.00 
 331   17:50   0.00   34.6    47    5.8   290     7.2   746.2    0.00 
 331   18:00   0.00   34.1    48    5.7   290     7.2   746.2    0.00 
 331   18:10   0.00   34.9    47    4.1   290     7.2   746.3    0.00 
 331   18:20   0.00   32.8    50    1.0   290     3.0   746.3    0.00 
 331   18:30   0.00   33.0    50    1.4   290     3.0   746.3    0.00 
 331   18:40   0.00   33.4    52    2.2   290     3.6   746.5    0.00 
 331   18:50   0.00   33.7    49    2.9   290     4.8   746.5    0.00 
 331   19:00   0.00   33.9    47    2.9   290     4.8   746.5    0.00 
 331   19:10   0.00   33.8    45    2.8   290     4.8   746.5    0.00 
 331   19:20   0.00   33.4    45    2.9   290     4.8   746.5    0.00 
 331   19:30   0.00   33.8    44    2.5   290     4.8   746.5    0.00 
 331   19:40   0.00   33.9    43    2.4   290     4.8   746.5    0.00 
 331   19:50   0.00   33.5    43    1.8   290     4.2   746.5    0.00 
 331   20:00   0.00   32.6    44    1.6   290     4.2   746.5    0.00 
 331   20:10   0.00   32.4    45    2.4   290     5.4   746.4    0.00 
 331   20:20   0.00   32.2    45    1.5   291     3.6   746.4    0.00 
 331   20:30   0.00   32.2    45    1.9   291     4.2   746.3    0.00 
 331   20:40   0.00   31.4    47    1.7   291     3.6   746.3    0.00 
 331   20:50   0.00   29.9    50    1.9   291     4.2   746.3    0.00 
 331   21:00   0.00   29.6    48    3.0   291     4.8   746.3    0.00 
 331   21:10   0.00   29.9    49    2.5   291     5.4   746.3    0.00 
 331   21:20   0.00   30.2    47    1.5   291     4.8   746.3    0.00 
 331   21:30   0.00   30.3    46    2.2   291     3.6   746.3    0.00 
 331   21:40   0.00   30.5    47    2.2   291     3.6   746.3    0.00 
 331   21:50   0.00   30.7    45    1.5   291     4.2   746.2    0.00 
 331   22:00   0.00   29.5    49    1.4   291     5.4   746.2    0.00 
 331   22:10   0.00   28.7    50    2.5   291     6.0   746.2    0.00 
 331   22:20   0.00   28.7    50    2.5   291     4.8   746.1    0.00 
 331   22:30   0.00   29.1    48    2.2   291     5.4   746.1    0.00 
 331   22:40   0.00   29.0    48    2.8   291     4.8   746.1    0.00 
 331   22:50   0.00   29.3    46    2.8   291     6.0   746.1    0.00 
 331   23:00   0.00   28.9    50    2.0   291     3.6   746.0    0.00 
 331   23:10   0.00   27.1    55    1.6   291     3.0   746.1    0.00 
 331   23:20   0.00   27.2    53    2.0   291     4.8   746.0    0.00 
 331   23:30   0.00   27.8    54    2.2   291     4.2   745.9    0.00 
 331   23:40   0.00   24.7    61    1.4   291     3.0   745.9    0.00 
 331   23:50   0.00   22.8    66    0.7   291     2.4   745.8    0.00 
 332    0:00   0.00   23.6    64    1.3   291     3.0   745.7    0.00 
 332    0:10   0.00   25.1    59    1.9   291     3.6   745.5    0.00 
 332    0:20   0.00   25.8    58    1.7   291     3.6   745.6    0.00 
 332    0:30   0.00   25.7    56    2.2   291     4.8   745.5    0.00 
 332    0:40   0.00   25.7    55    2.9   291     4.2   745.4    0.00 
 332    0:50   0.00   25.8    53    2.3   291     4.2   745.4    0.00 
 332    1:00   0.00   25.7    53    2.2   291     4.2   745.5    0.00 
 332    1:10   0.00   26.1    52    2.6   291     3.6   745.4    0.00 
 332    1:20   0.00   26.4    51    2.3   291     4.2   745.4    0.00 
 332    1:30   0.00   25.8    52    1.6   291     2.4   745.4    0.00 
 332    1:40   0.00   24.9    53    2.5   291     3.6   745.5    0.00 
 332    1:50   0.00   25.6    51    2.3   291     4.2   745.4    0.00 
 332    2:00   0.00   24.9    55    1.6   291     3.0   745.4    0.00 
 332    2:10   0.00   21.6    64    0.6   291     2.4   745.3    0.00 
 332    2:20   0.00   21.4    66    0.0     0     0.0   745.3    0.00 
 332    2:30   0.00   21.8    64    1.8   291     3.6   745.2    0.00 
 332    2:40   0.00   23.4    62    2.3   291     3.6   745.2    0.00 
 332    2:50   0.00   22.9    61    0.3   291     1.2   745.2    0.00 
 332    3:00   0.00   22.2    63    1.1   291     3.0   745.1    0.00 
 332    3:10   0.00   22.6    60    1.4   291     3.0   745.0    0.00 
 332    3:20   0.00   23.7    57    1.8   291     3.0   745.0    0.00 
 332    3:30   0.00   24.1    54    2.0   292     3.6   745.0    0.00 
 332    3:40   0.00   24.1    54    1.7   292     3.0   744.9    0.00 
 332    3:50   0.00   23.8    55    1.9   292     3.6   744.8    0.00 
 332    4:00   0.00   19.8    66    1.1   292     3.0   744.7    0.00 
 332    4:10   0.00   19.5    68    1.3   292     3.0   744.6    0.00 
 332    4:20   0.00   21.7    62    0.9   292     3.6   744.5    0.00 
 332    4:30   0.00   22.7    58    1.0   292     3.6   744.6    0.00 
 332    4:40   0.00   21.0    63    0.3   292     1.8   744.5    0.00 
 332    4:50   0.00   21.0    63    0.9   292     3.0   744.4    0.00 
 332    5:00   0.00   19.4    66    1.8   292     3.0   744.4    0.00 
 332    5:10   0.00   18.2    72    0.9   292     3.0   744.3    0.00 
 332    5:20   0.00   18.9    70    1.7   292     3.6   744.3    0.00 
 332    5:30   0.00   19.3    69    1.3   292     3.6   744.2    0.00 
 332    5:40   0.00   19.5    66    1.8   292     4.2   744.1    0.00 
 332    5:50   0.00   20.2    63    2.0   292     4.8   744.2    0.00 
 332    6:00   0.00   18.3    68    2.0   292     4.2   744.1    0.00 
 332    6:10   0.00   18.6    70    1.8   292     3.6   744.2    0.00 
 332    6:20   0.00   18.5    68    2.1   292     6.6   744.2    0.00 
 332    6:30   0.00   19.2    66    1.9   293     3.6   744.1    0.00 
 332    6:40   0.00   19.9    65    1.6   293     3.6   744.2    0.00 
 332    6:50   0.00   20.1    63    2.2   293     5.4   744.2    0.00 
 332    7:00   0.00   20.5    61    2.7   292     6.6   744.2    0.00 
 332    7:10   0.00   20.8    60    2.7   292     6.0   744.2    0.00 
 332    7:20   0.01   22.0    57    1.9   292     4.8   744.2    0.00 
 332    7:30   0.02   21.7    58    1.8   292     4.2   744.3    0.00 
 332    7:40   0.03   22.7    57    2.5   292     6.0   744.2    0.00 
 332    7:50   0.11   25.6    57    2.0   293     4.8   744.2    0.00 
 332    8:00   0.14   29.8    54    2.2   293     5.4   744.3    0.00 
 332    8:10   0.16   31.8    51    4.1   293     6.6   744.2    0.00 
 332    8:20   0.18   34.2    49    4.1   294     7.8   744.1    0.00 
 332    8:30   0.21   33.7    48    3.6   292     7.8   744.1    0.00 
 332    8:40   0.23   29.1    62    3.5   291     7.2   744.0    0.00 
 332    8:50   0.26   30.0    62    3.8   291     7.8   744.0    0.00 
 332    9:00   0.28   32.3    53    2.5   291     5.4   744.0    0.00 
 332    9:10   0.31   36.0    44    2.6   291     4.2   743.9    0.00 
 332    9:20   0.33   37.8    39    2.8   291     4.2   743.9    0.00 
 332    9:30   0.35   38.5    38    3.9   291     6.6   743.8    0.00 
 332    9:40   0.37   38.8    43    4.2   291     7.2   743.8    0.00 
 332    9:50   0.39   40.9    39    3.6   291     6.6   743.8    0.00 
 332   10:00   0.41   50.3    16    9.1   299    17.3   743.8    0.00 
 332   10:10   0.43   55.6    12   10.8   302    17.9   743.7    0.00 
 332   10:20   0.45   56.3    11   10.9   302    18.5   743.7    0.00 
 332   10:30   0.46   56.3    10   11.1   303    17.9   743.6    0.00 
 332   10:40   0.47   56.5    10   13.2   307    22.7   743.4    0.00 
 332   10:50   0.48   56.1    10   13.8   309    25.0   743.3    0.00 
 332   11:00   0.49   56.2    10   13.2   306    19.7   743.2    0.00 
 332   11:10   0.50   56.3    10   13.0   308    20.9   743.2    0.00 
 332   11:20   0.50   56.5    10   11.7   303    18.5   743.1    0.00 
 332   11:30   0.51   57.1    10   12.8   305    19.1   742.9    0.00 
 332   11:40   0.51   58.1    10   10.7   301    18.5   742.8    0.00 
 332   11:50   0.51   58.0    10   11.1   301    21.5   742.6    0.00 
 332   12:00   0.52   57.8    10   10.8   300    19.1   742.5    0.00 
 332   12:10   0.51   57.7     9    8.6   296    17.3   742.4    0.00 
 332   12:20   0.50   57.7     9    8.9   296    17.9   742.3    0.00 
 332   12:30   0.51   57.3     8   11.2   301    21.5   742.2    0.00 
 332   12:40   0.50   57.4     8    9.8   297    18.5   742.1    0.00 
 332   12:50   0.50   57.7     8    8.9   296    23.3   742.0    0.00 
 332   13:00   0.49   57.9     8    8.2   295    15.5   741.9    0.00 
 332   13:10   0.48   57.5     8    8.2   295    17.3   741.8    0.00 

Return to Headquarters, Valles Caldera graphs page.


Western Regional Climate Center,wrcc@dri.edu